Vienna, West Virginia
Current Conditions -  °F | °C
As of 6:53 PM on Thursday 27 Nov 2014 (Local Time) from KPKB Reporting Station
Overcast Overcast  
Wind Chill: 25°   Ceiling: 5500
Heat Index: 31°   Visibility: 10mi
Dew Point: 23°   Wind: 6mph
Humidity: 72%   Direction: 280°W
Pressure: 30.3"   Gusts: NA
Location:  39.33°N, 81.55°W
Report Text: KPKB 272353Z 28005KT 10SM BKN055 OVC100 M01/M05 A3030 RMK AO2 SLP268 60000 T10061050 10011 21006 51021
Loading
Personal Weather Stations






























Interactive Weather Map New forecast layout! Learn more

10-Day Weather Forecast

Advertisements
Track Severe Weather on mobile